Time;durP1;ratioP1;P1;durP2;ratioP2;P2;SDS_P1;SDS_P2;PMS_P1;PMS_P2;Temp;Humidity;BMP_temperature;BMP_pressure;BME280_temperature;BME280_humidity;BME280_pressure;Samples;Min_cycle;Max_cycle;Signal;HPM_P1;HPM_P2
2022/05/29 00:01:09;;;;;;;4.00;3.33;;;;;;;;;;5113252;28;20208;-70
2022/05/29 00:03:36;;;;;;;4.10;4.03;;;;;;;8.31;96.33;65026.31;5114985;28;20235;-70
2022/05/29 00:06:04;;;;;;;3.73;3.47;;;;;;;8.28;96.40;65033.88;5115025;28;20191;-70
2022/05/29 00:08:34;;;;;;;3.97;3.73;;;;;;;8.28;96.73;65023.53;5114214;28;20185;-71
2022/05/29 00:11:01;;;;;;;4.10;3.67;;;;;;;8.25;96.82;65022.81;5114058;28;20256;-71
2022/05/29 00:13:28;;;;;;;3.60;3.40;;;;;;;;;;5114623;28;20194;-71
2022/05/29 00:15:55;;;;;;;3.83;3.63;;;;;;;8.23;97.14;65017.47;5115384;28;20205;-71
2022/05/29 00:18:21;;;;;;;5.70;3.87;;;;;;;8.24;97.29;65028.94;5114896;28;20659;-71
2022/05/29 00:20:51;;;;;;;3.47;3.10;;;;;;;8.21;97.25;65018.38;5114239;28;20250;-70
2022/05/29 00:23:18;;;;;;;3.53;3.53;;;;;;;8.16;97.83;65025.25;5113243;28;20219;-70
2022/05/29 00:25:49;;;;;;;3.13;3.13;;;;;;;8.06;98.38;65014.19;5114753;28;20189;-71
2022/05/29 00:28:15;;;;;;;3.57;3.37;;;;;;;8.00;98.76;65000.34;5114932;28;20186;-71
2022/05/29 00:30:42;;;;;;;2.90;2.80;;;;;;;7.86;99.35;64993.19;5097074;28;20212;-71
2022/05/29 00:33:09;;;;;;;2.90;2.90;;;;;;;7.88;99.59;64995.38;5113296;28;20659;-70
2022/05/29 00:35:39;;;;;;;3.50;3.40;;;;;;;7.88;99.43;64985.06;5114539;28;20266;-71
2022/05/29 00:38:08;;;;;;;4.03;3.80;;;;;;;7.86;99.23;64984.84;5088276;28;20617;-70
2022/05/29 00:40:59;;;;;;;4.13;3.77;;;;;;;7.87;98.74;64991.16;5113950;28;20242;-71
2022/05/29 00:43:25;;;;;;;4.00;3.80;;;;;;;7.79;99.01;64982.84;5113888;28;20604;-70
2022/05/29 00:45:56;;;;;;;3.23;3.13;;;;;;;7.81;99.35;64990.22;5114082;28;20247;-70
2022/05/29 00:48:23;;;;;;;3.07;3.07;;;;;;;7.80;99.48;64973.63;5113882;28;20186;-71
2022/05/29 00:50:53;;;;;;;4.03;3.93;;;;;;;7.81;100.00;64987.09;5114804;28;20254;-71
2022/05/29 00:53:22;;;;;;;3.30;3.30;;;;;;;7.75;100.00;64977.88;5112435;28;20189;-71
2022/05/29 00:56:11;;;;;;;3.53;3.33;;;;;;;7.71;100.00;64961.09;5114023;28;20201;-71
2022/05/29 00:58:37;;;;;;;3.23;2.97;;;;;;;;;;5114051;28;20189;-71
2022/05/29 01:01:04;;;;;;;3.33;3.33;;;;;;;7.76;100.00;64984.69;5114663;28;20201;-71
2022/05/29 01:03:31;;;;;;;3.70;3.43;;;;;;;7.78;100.00;64970.84;5113815;28;20219;-71
2022/05/29 01:05:58;;;;;;;5.13;4.10;;;;;;;7.76;100.00;64984.69;5113736;28;20192;-71
2022/05/29 01:08:28;;;;;;;3.60;3.50;;;;;;;7.65;100.00;64954.47;5112084;28;20658;-70
2022/05/29 01:11:30;;;;;;;4.87;4.07;;;;;;;7.70;100.00;64978.06;5114519;28;20262;-71
2022/05/29 01:14:20;;;;;;;3.80;3.50;;;;;;;7.64;100.00;64971.44;5113455;28;20192;-71
2022/05/29 01:17:01;;;;;;;2.57;2.57;;;;;;;7.68;100.00;64962.94;5095878;28;20251;-71
2022/05/29 01:19:49;;;;;;;3.63;3.33;;;;;;;7.69;100.00;64971.78;5113169;28;20713;-71
2022/05/29 01:22:31;;;;;;;3.93;3.63;;;;;;;7.42;100.00;64945.63;5113400;28;20193;-71
2022/05/29 01:25:09;;;;;;;4.30;3.87;;;;;;;7.33;100.00;64922.22;5111311;28;20234;-71
2022/05/29 01:27:42;;;;;;;4.70;3.53;;;;;;;7.34;100.00;64931.63;5114851;28;20166;-71
2022/05/29 01:30:14;;;;;;;10.47;3.73;;;;;;;7.38;100.00;64940.66;5113677;28;20213;-71
2022/05/29 01:32:55;;;;;;;4.23;3.90;;;;;;;7.40;100.00;64942.88;5113372;28;20180;-71
2022/05/29 01:35:32;;;;;;;3.50;3.40;;;;;;;7.42;100.00;64945.63;5094057;28;20227;-72
2022/05/29 01:38:17;;;;;;;7.20;3.30;;;;;;;7.40;100.00;64938.25;5098901;28;20723;-72
2022/05/29 01:40:49;;;;;;;3.67;3.53;;;;;;;7.41;100.00;64941.41;5110515;28;20273;-72
2022/05/29 01:43:25;;;;;;;3.67;3.57;;;;;;;7.35;100.00;64940.47;5111713;28;20197;-72
2022/05/29 01:45:57;;;;;;;4.00;3.70;;;;;;;7.40;100.00;64935.13;5112333;28;20217;-72
2022/05/29 01:48:51;;;;;;;3.87;3.57;;;;;;;7.36;100.00;64933.84;5113355;28;20189;-71
2022/05/29 01:51:24;;;;;;;3.83;3.53;;;;;;;7.37;100.00;64931.81;5113316;28;20265;-71
2022/05/29 01:54:13;;;;;;;3.60;3.40;;;;;;;7.32;100.00;64939.75;5111040;28;20234;-71
2022/05/29 01:56:44;;;;;;;3.60;3.40;;;;;;;7.32;100.00;64924.25;5112203;28;20616;-71
2022/05/29 01:59:35;;;;;;;3.20;3.20;;;;;;;7.34;100.00;64934.22;5113053;28;20188;-71
2022/05/29 02:02:09;;;;;;;3.73;3.57;;;;;;;7.32;100.00;64926.84;5112831;28;20232;-71
2022/05/29 02:04:40;;;;;;;3.30;3.20;;;;;;;7.33;100.00;64927.41;5101957;28;20193;-71
2022/05/29 02:10:08;;;;;;;4.20;3.33;;;;;;;7.31;100.00;64927.78;5111705;28;20217;-71
2022/05/29 02:12:40;;;;;;;4.50;3.90;;;;;;;7.29;100.00;64933.88;5099683;28;20277;-71
2022/05/29 02:15:18;;;;;;;3.43;3.43;;;;;;;7.27;100.00;64931.63;5111530;28;20205;-71
2022/05/29 02:17:50;;;;;;;3.67;3.57;;;;;;;7.29;100.00;64923.53;5112433;28;20614;-71
2022/05/29 02:20:41;;;;;;;3.90;3.70;;;;;;;7.31;100.00;64938.09;5112393;28;20556;-71
2022/05/29 02:23:20;;;;;;;4.03;3.73;;;;;;;7.28;100.00;64930.16;5113717;28;20181;-71
2022/05/29 02:25:47;;;;;;;5.57;3.93;;;;;;;7.25;100.00;64913.41;5110089;28;20284;-71
2022/05/29 02:28:24;;;;;;;3.50;3.23;;;;;;;7.14;100.00;64902.34;5109177;28;20576;-71
2022/05/29 02:31:22;;;;;;;3.87;3.77;;;;;;;7.15;100.00;64910.66;5101310;28;20596;-71
2022/05/29 02:34:00;;;;;;;4.63;3.70;;;;;;;7.13;100.00;64916.72;5111654;28;20193;-70
2022/05/29 02:36:39;;;;;;;4.30;4.10;;;;;;;7.16;100.00;64909.19;5104040;28;20203;-71
2022/05/29 02:39:28;;;;;;;5.00;3.40;;;;;;;7.12;100.00;64900.13;5112546;28;20197;-72
2022/05/29 02:42:03;;;;;;;4.43;4.40;;;;;;;7.17;100.00;64910.28;5109661;28;20193;-71
2022/05/29 02:44:50;;;;;;;5.00;4.53;;;;;;;7.22;100.00;64915.81;5112365;28;20182;-71
2022/05/29 02:47:48;;;;;;;5.27;4.70;;;;;;;7.07;100.00;64904.94;5110690;28;20215;-71
2022/05/29 02:50:47;;;;;;;5.13;4.73;;;;;;;7.02;100.00;64898.88;5092998;28;20233;-71
2022/05/29 02:53:15;;;;;;;4.47;4.47;;;;;;;6.97;100.00;64883.03;5093254;28;20244;-71
2022/05/29 02:55:43;;;;;;;5.23;4.93;;;;;;;6.92;100.00;64877.50;5102871;28;20242;-71
2022/05/29 02:58:28;;;;;;;5.33;4.77;;;;;;;6.99;100.00;64900.69;5113256;28;20241;-71
2022/05/29 03:01:07;;;;;;;5.00;4.43;;;;;;;;;;5112444;28;20264;-71
2022/05/29 03:03:42;;;;;;;4.73;4.57;;;;;;;6.92;100.00;64882.66;5114408;28;20205;-71
2022/05/29 03:06:18;;;;;;;6.30;4.87;;;;;;;6.96;100.00;64885.03;5116399;28;20239;-71
2022/05/29 03:09:20;;;;;;;7.23;5.53;;;;;;;6.92;100.00;64885.78;5117266;28;20627;-71
2022/05/29 03:11:47;;;;;;;7.30;5.20;;;;;;;7.00;100.00;64889.47;5114754;28;20181;-71
2022/05/29 03:14:47;;;;;;;8.27;5.33;;;;;;;7.13;100.00;64916.16;5116000;28;20191;-72
2022/05/29 03:17:30;;;;;;;5.97;5.47;;;;;;;7.12;100.00;64902.72;5115988;28;20205;-71
2022/05/29 03:19:56;;;;;;;4.90;4.50;;;;;;;7.09;100.00;64902.00;5115850;28;20262;-71
2022/05/29 03:22:45;;;;;;;5.57;5.27;;;;;;;7.13;100.00;64900.69;5115886;28;20189;-71
2022/05/29 03:25:37;;;;;;;5.23;4.90;;;;;;;7.14;100.00;64907.53;5113557;28;20184;-71
2022/05/29 03:28:27;;;;;;;5.57;5.27;;;;;;;7.16;100.00;64901.44;5114221;28;20188;-71
2022/05/29 03:30:54;;;;;;;6.10;5.90;;;;;;;7.17;100.00;64918.56;5115603;28;20212;-71
2022/05/29 03:33:21;;;;;;;5.60;5.43;;;;;;;7.22;100.00;64925.56;5114990;28;20189;-70
2022/05/29 03:35:53;;;;;;;5.27;5.07;;;;;;;7.24;100.00;64923.16;5116128;28;20646;-70
2022/05/29 03:38:21;;;;;;;5.97;5.77;;;;;;;7.25;100.00;64926.84;5115801;28;20200;-70
2022/05/29 03:40:50;;;;;;;6.50;5.93;;;;;;;7.30;100.00;64921.50;5115659;28;20307;-73
2022/05/29 03:43:16;;;;;;;6.33;5.43;;;;;;;7.31;100.00;64933.50;5114420;28;20701;-70
2022/05/29 03:45:43;;;;;;;5.77;5.63;;;;;;;7.35;100.00;64937.91;5114912;28;20751;-71
2022/05/29 03:48:10;;;;;;;6.17;5.67;;;;;;;7.37;100.00;64937.53;5115326;28;20224;-71
2022/05/29 03:50:36;;;;;;;5.47;5.37;;;;;;;7.38;100.00;64941.22;5115320;28;20261;-71
2022/05/29 03:53:04;;;;;;;6.13;5.93;;;;;;;7.37;100.00;64929.78;5115442;28;20193;-71
2022/05/29 03:55:31;;;;;;;5.90;5.40;;;;;;;7.48;100.00;64949.13;5112253;28;20182;-71
2022/05/29 03:57:57;;;;;;;8.10;6.40;;;;;;;7.49;100.00;64944.53;5114958;28;20204;-71
2022/05/29 04:00:24;;;;;;;5.83;5.53;;;;;;;7.49;100.00;64942.50;5115052;28;20610;-71
2022/05/29 04:02:52;;;;;;;7.17;6.87;;;;;;;7.51;100.00;64944.16;5114732;28;20226;-71
2022/05/29 04:05:22;;;;;;;6.30;6.10;;;;;;;7.54;100.00;64960.38;5114807;28;20232;-71
2022/05/29 04:13:22;;;;;;;5.90;5.60;;;;;;;7.60;100.00;64954.09;5113354;28;20177;-70
2022/05/29 04:15:49;;;;;;;6.17;5.53;;;;;;;7.61;100.00;64962.97;5111680;28;20193;-71
2022/05/29 04:18:17;;;;;;;5.90;5.50;;;;;;;7.66;100.00;64950.41;5115791;28;20210;-71
2022/05/29 04:20:44;;;;;;;6.17;5.67;;;;;;;7.68;100.00;64975.84;5114543;28;20213;-71
2022/05/29 04:23:12;;;;;;;6.13;5.73;;;;;;;7.72;100.00;64969.97;5116056;28;20188;-71
2022/05/29 04:25:38;;;;;;;6.40;6.00;;;;;;;7.78;100.00;64981.19;5113433;28;20193;-70
2022/05/29 04:28:07;;;;;;;7.43;5.90;;;;;;;7.86;100.00;64982.28;5114345;28;20182;-71
2022/05/29 04:30:34;;;;;;;6.87;5.60;;;;;;;7.85;100.00;64979.16;5114285;28;20217;-71
2022/05/29 04:33:00;;;;;;;8.83;5.83;;;;;;;7.89;100.00;64988.19;5115330;28;20231;-71
2022/05/29 04:35:35;;;;;;;6.33;5.93;;;;;;;7.97;100.00;65007.38;5113342;28;20230;-70
2022/05/29 04:38:02;;;;;;;6.50;5.97;;;;;;;7.94;100.00;65004.06;5095107;28;20243;-71
2022/05/29 04:40:30;;;;;;;5.90;5.33;;;;;;;7.99;100.00;64996.66;5103669;28;20208;-71
2022/05/29 04:42:56;;;;;;;6.00;5.63;;;;;;;7.90;100.00;64992.44;5115636;28;20185;-71
2022/05/29 04:45:23;;;;;;;12.67;6.63;;;;;;;7.95;100.00;65002.56;5112106;28;20528;-71
2022/05/29 04:47:50;;;;;;;6.47;6.17;;;;;;;7.90;100.00;65005.34;5114978;28;20181;-71
2022/05/29 04:50:16;;;;;;;5.37;5.10;;;;;;;7.93;100.00;64988.00;5114302;28;20617;-71
2022/05/29 04:52:43;;;;;;;5.87;5.47;;;;;;;7.97;100.00;65000.16;5115129;28;20185;-71
2022/05/29 04:55:09;;;;;;;6.17;5.50;;;;;;;8.08;100.00;65016.41;5113770;28;20258;-71
2022/05/29 04:57:40;;;;;;;6.03;5.63;;;;;;;8.14;100.00;65015.81;5113992;28;20205;-71
2022/05/29 05:00:08;;;;;;;9.33;5.50;;;;;;;8.08;100.00;65006.06;5095397;28;20221;-72
2022/05/29 05:02:34;;;;;;;6.20;5.80;;;;;;;8.17;100.00;65013.97;5113450;28;20185;-72
2022/05/29 05:05:01;;;;;;;5.63;5.30;;;;;;;8.11;100.00;65006.78;5113561;28;20221;-72
2022/05/29 05:07:27;;;;;;;6.00;5.67;;;;;;;8.23;100.00;65020.06;5113686;28;20193;-72
2022/05/29 05:09:54;;;;;;;6.73;6.30;;;;;;;8.13;100.00;65009.00;5113642;28;20217;-72
2022/05/29 05:12:20;;;;;;;5.97;5.47;;;;;;;8.11;100.00;65009.38;5112934;28;20193;-71
2022/05/29 05:14:47;;;;;;;7.37;6.47;;;;;;;8.11;100.00;65009.94;5111359;28;20589;-72
2022/05/29 05:17:14;;;;;;;6.93;5.60;;;;;;;8.23;100.00;65027.81;5107054;28;20266;-72
2022/05/29 05:19:40;;;;;;;6.30;5.60;;;;;;;8.26;100.00;65020.78;5113721;28;20201;-72
2022/05/29 05:22:09;;;;;;;6.13;5.73;;;;;;;8.27;100.00;65024.47;5114335;28;20235;-72
2022/05/29 05:24:37;;;;;;;6.17;5.77;;;;;;;8.27;100.00;65034.81;5113376;28;20197;-71
2022/05/29 05:27:06;;;;;;;6.73;6.33;;;;;;;8.34;100.00;65042.56;5111756;28;20185;-71
2022/05/29 05:29:38;;;;;;;5.57;5.17;;;;;;;8.36;100.00;65036.47;5113510;28;20575;-71
2022/05/29 05:32:05;;;;;;;4.57;4.47;;;;;;;8.34;100.00;65029.09;5112243;28;20227;-71
2022/05/29 05:34:32;;;;;;;6.33;5.93;;;;;;;8.44;100.00;65053.66;5113183;28;20678;-71
2022/05/29 05:36:58;;;;;;;7.77;5.80;;;;;;;8.49;100.00;65054.00;5113516;28;20673;-72
2022/05/29 05:39:25;;;;;;;8.63;5.73;;;;;;;8.57;100.00;65059.72;5113650;28;20226;-72
2022/05/29 05:41:51;;;;;;;5.30;5.10;;;;;;;8.57;100.00;65056.56;5112749;28;20600;-72
2022/05/29 05:44:18;;;;;;;6.13;6.00;;;;;;;;;;5113176;28;20192;-72
2022/05/29 05:46:53;;;;;;;5.87;5.57;;;;;;;8.51;100.00;65051.06;5112024;28;20708;-71
2022/05/29 05:49:26;;;;;;;7.80;6.00;;;;;;;8.55;100.00;65058.06;5113221;28;20260;-71
2022/05/29 05:51:54;;;;;;;9.80;5.30;;;;;;;8.68;100.00;65066.16;5113774;28;20193;-72
2022/05/29 05:54:20;;;;;;;6.37;5.93;;;;;;;8.73;100.00;65074.28;5113142;28;20245;-72
2022/05/29 05:56:51;;;;;;;5.33;5.13;;;;;;;8.67;100.00;65068.19;5113087;28;20244;-72
2022/05/29 05:59:18;;;;;;;5.37;5.17;;;;;;;8.67;100.00;65070.78;5112825;28;20199;-71
2022/05/29 06:01:44;;;;;;;8.63;5.40;;;;;;;8.72;100.00;65086.13;5112401;28;20258;-71
2022/05/29 06:04:11;;;;;;;6.63;6.27;;;;;;;8.81;100.00;65080.53;5110834;28;20178;-71
2022/05/29 06:06:37;;;;;;;6.37;5.93;;;;;;;8.75;100.00;65084.81;5112846;28;20193;-71
2022/05/29 06:09:04;;;;;;;6.43;6.03;;;;;;;8.88;100.00;65093.47;5114026;28;20177;-72
2022/05/29 06:11:31;;;;;;;8.70;6.33;;;;;;;8.91;100.00;65101.94;5112937;28;20219;-72
2022/05/29 06:13:57;;;;;;;5.30;5.10;;;;;;;8.96;100.00;65104.34;5112744;28;20231;-71
2022/05/29 06:16:23;;;;;;;6.30;6.00;;;;;;;9.08;100.00;65117.63;5111338;28;20240;-71
2022/05/29 06:18:51;;;;;;;6.83;6.50;;;;;;;9.04;100.00;65111.16;5111281;28;20237;-72
2022/05/29 06:21:17;;;;;;;7.50;6.83;;;;;;;9.00;100.00;65103.59;5111854;28;20205;-71
2022/05/29 06:23:44;;;;;;;6.50;5.93;;;;;;;9.01;100.00;65115.63;5113360;28;20181;-70
2022/05/29 06:26:12;;;;;;;10.20;7.37;;;;;;;8.98;100.00;65101.94;5112500;28;20197;-72
2022/05/29 06:28:39;;;;;;;7.20;6.57;;;;;;;9.01;100.00;65104.72;5112872;28;20190;-72
2022/05/29 06:31:08;;;;;;;7.07;6.57;;;;;;;9.07;100.00;65111.34;5112672;28;20605;-72
2022/05/29 06:33:36;;;;;;;7.23;6.67;;;;;;;9.10;100.00;65127.63;5111238;28;20200;-73
2022/05/29 06:36:14;;;;;;;6.83;6.33;;;;;;;9.24;100.00;65132.19;5111555;28;20298;-73
2022/05/29 06:38:42;;;;;;;9.27;6.57;;;;;;;9.32;100.00;65138.47;5117624;28;20227;-73
2022/05/29 06:41:10;;;;;;;8.70;7.03;;;;;;;9.33;100.00;65142.16;5116652;28;20620;-73
2022/05/29 06:43:37;;;;;;;6.97;6.57;;;;;;;9.30;100.00;65136.81;5117463;28;20204;-72
2022/05/29 06:46:06;;;;;;;10.80;6.80;;;;;;;9.31;100.00;65134.78;5115515;28;20186;-73
2022/05/29 06:48:35;;;;;;;9.23;6.90;;;;;;;9.31;100.00;65140.50;5115155;28;20181;-71
2022/05/29 06:51:05;;;;;;;12.30;8.17;;;;;;;;;;5116519;28;20287;-71
2022/05/29 06:53:32;;;;;;;8.03;7.47;;;;;;;9.47;100.00;65168.03;5117888;28;20237;-72
2022/05/29 06:55:58;;;;;;;7.93;7.20;;;;;;;9.57;100.00;65163.00;5116069;28;20647;-72
2022/05/29 06:58:25;;;;;;;8.97;7.97;;;;;;;9.64;100.00;65171.31;5117055;28;20249;-73
2022/05/29 07:09:10;;;;;;;6.13;5.63;;;;;;;9.79;100.00;65189.41;5109009;28;20191;-72
2022/05/29 07:11:41;;;;;;;8.23;4.93;;;;;;;9.85;100.00;65196.03;5116191;28;20200;-73
2022/05/29 07:14:08;;;;;;;6.07;5.67;;;;;;;9.95;100.00;65206.56;5115687;28;20235;-71
2022/05/29 07:16:35;;;;;;;5.80;5.40;;;;;;;9.88;100.00;65199.38;5117101;28;20192;-73
2022/05/29 07:19:04;;;;;;;5.77;5.50;;;;;;;9.99;100.00;65221.38;5115689;28;20253;-72
2022/05/29 07:21:33;;;;;;;6.13;5.83;;;;;;;10.01;100.00;65213.78;5115507;28;20263;-73
2022/05/29 07:24:00;;;;;;;5.63;5.53;;;;;;;10.08;100.00;65226.72;5115767;28;20196;-71
2022/05/29 07:26:26;;;;;;;9.83;5.97;;;;;;;10.01;100.00;65213.22;5116406;28;20203;-72
2022/05/29 07:28:53;;;;;;;5.37;5.17;;;;;;;10.04;100.00;65217.09;5116597;28;20613;-72
2022/05/29 07:31:19;;;;;;;4.93;4.73;;;;;;;10.11;100.00;65229.47;5115435;28;20212;-73
2022/05/29 07:33:46;;;;;;;4.83;4.53;;;;;;;10.14;100.00;65225.59;5115755;28;20192;-72
2022/05/29 07:36:13;;;;;;;4.77;4.57;;;;;;;10.10;100.00;65228.38;5114172;28;20553;-72
2022/05/29 07:38:40;;;;;;;4.53;4.10;;;;;;;10.15;100.00;65228.72;5116632;28;20666;-73
2022/05/29 07:43:52;;;;;;;6.07;4.30;;;;;;;10.17;100.00;65231.50;5116335;28;20173;-72
2022/05/29 07:46:19;;;;;;;3.77;3.77;;;;;;;10.24;100.00;65240.75;5113319;28;20196;-72
2022/05/29 07:48:46;;;;;;;4.47;3.97;;;;;;;;;;5116151;28;20184;-72
2022/05/29 07:51:13;;;;;;;4.03;3.60;;;;;;;10.23;100.00;65237.06;5112773;28;20611;-72
2022/05/29 07:53:40;;;;;;;4.57;3.90;;;;;;;10.32;100.00;65247.03;5116319;28;20219;-72
2022/05/29 07:56:07;;;;;;;5.67;3.30;;;;;;;10.23;100.00;65242.81;5115075;28;20655;-72
2022/05/29 07:58:33;;;;;;;4.23;3.90;;;;;;;10.38;100.00;65258.88;5115893;28;20238;-73
2022/05/29 08:01:01;;;;;;;4.10;3.80;;;;;;;10.36;100.00;65244.22;5115052;28;20266;-72
2022/05/29 08:03:28;;;;;;;3.73;3.53;;;;;;;;;;5115668;28;20201;-72
2022/05/29 08:05:56;;;;;;;3.57;3.30;;;;;;;;;;5111683;28;20245;-72
2022/05/29 08:08:23;;;;;;;3.77;3.50;;;;;;;10.59;100.00;65276.41;5114936;28;20527;-73
2022/05/29 08:10:50;;;;;;;5.13;4.27;;;;;;;10.67;100.00;65285.81;5111052;28;20313;-72
2022/05/29 08:13:17;;;;;;;5.90;3.97;;;;;;;10.79;100.00;65295.41;5108142;28;20195;-73
2022/05/29 08:15:43;;;;;;;3.63;3.43;;;;;;;10.90;100.00;65310.19;5113612;28;20663;-73
2022/05/29 08:18:10;;;;;;;4.20;3.97;;;;;;;10.96;100.00;65314.25;5114385;28;20206;-73
2022/05/29 08:20:37;;;;;;;4.40;4.27;;;;;;;11.11;100.00;65330.88;5113225;28;20216;-72
2022/05/29 08:23:05;;;;;;;3.73;3.27;;;;;;;11.22;98.80;65350.88;5115806;28;20176;-72
2022/05/29 08:31:09;;;;;;;8.73;3.67;;;;;;;11.26;94.08;65355.31;5095956;28;20216;-73
2022/05/29 08:33:36;;;;;;;3.60;3.00;;;;;;;11.29;95.90;65353.44;5114754;28;20196;-72
2022/05/29 08:36:32;;;;;;;2.53;2.53;;;;;;;11.36;94.25;65362.69;5113107;28;20916;-72
2022/05/29 08:38:58;;;;;;;3.57;3.37;;;;;;;;;;5076773;28;20216;-73
2022/05/29 08:41:33;;;;;;;2.93;2.73;;;;;;;11.29;95.00;65353.44;5113851;28;20212;-73
2022/05/29 08:44:20;;;;;;;7.13;3.20;;;;;;;;;;5115103;28;20210;-72
2022/05/29 08:46:52;;;;;;;5.00;3.37;;;;;;;10.84;97.03;65304.09;5114663;28;20258;-72
2022/05/29 08:49:24;;;;;;;2.87;2.47;;;;;;;10.73;99.09;65292.47;5112703;28;20191;-71
2022/05/29 08:51:57;;;;;;;2.97;2.50;;;;;;;10.48;100.00;65269.94;5109583;28;20249;-72
2022/05/29 08:54:42;;;;;;;2.40;2.40;;;;;;;10.39;100.00;65260.53;5111859;28;20193;-72
2022/05/29 08:57:21;;;;;;;2.30;2.30;;;;;;;10.40;100.00;65258.47;5112968;28;20245;-72
2022/05/29 08:59:58;;;;;;;2.40;2.40;;;;;;;10.30;100.00;65245.38;5114107;28;20692;-73
2022/05/29 09:02:31;;;;;;;2.30;2.27;;;;;;;10.34;100.00;65257.56;5112781;28;20681;-71
2022/05/29 09:05:06;;;;;;;5.30;2.53;;;;;;;10.30;99.72;65244.81;5113438;28;20206;-70
2022/05/29 09:07:37;;;;;;;1.83;1.83;;;;;;;10.25;100.00;65237.22;5109541;28;20179;-73
2022/05/29 09:10:18;;;;;;;2.80;2.80;;;;;;;10.31;100.00;65246.47;5113587;28;20637;-72
2022/05/29 09:13:09;;;;;;;3.40;3.13;;;;;;;10.47;100.00;65261.03;5098093;28;20195;-72
2022/05/29 09:15:41;;;;;;;2.77;2.53;;;;;;;;;;5113957;28;20192;-72
2022/05/29 09:18:18;;;;;;;3.10;2.90;;;;;;;10.50;100.00;65266.41;5110421;28;20715;-72
2022/05/29 09:20:51;;;;;;;3.03;2.93;;;;;;;10.65;100.00;65288.78;5113791;28;20264;-72
2022/05/29 09:23:25;;;;;;;3.07;2.90;;;;;;;10.75;100.00;65292.09;5112186;28;20238;-73
2022/05/29 09:25:52;;;;;;;2.77;2.67;;;;;;;10.78;100.00;65294.28;5112532;28;20241;-72
2022/05/29 09:28:24;;;;;;;3.53;3.27;;;;;;;10.82;100.00;65312.28;5113394;28;20185;-73
2022/05/29 09:31:01;;;;;;;3.53;3.43;;;;;;;10.89;100.00;65311.69;5113064;28;20258;-70
2022/05/29 09:33:29;;;;;;;3.60;3.40;;;;;;;11.03;100.00;65325.16;5094110;28;20184;-72
2022/05/29 09:36:34;;;;;;;3.47;3.30;;;;;;;11.15;100.00;65337.94;5109552;28;20238;-73
2022/05/29 09:39:05;;;;;;;3.77;3.47;;;;;;;11.32;100.00;65355.66;5111019;28;20254;-72
2022/05/29 09:41:52;;;;;;;3.30;3.10;;;;;;;11.51;100.00;65379.91;5113374;28;20213;-72
2022/05/29 09:44:22;;;;;;;3.40;3.20;;;;;;;11.77;100.00;65394.63;5095042;28;20180;-71
2022/05/29 09:46:51;;;;;;;4.23;4.13;;;;;;;11.80;100.00;65405.75;5110214;28;20239;-71
2022/05/29 09:52:21;;;;;;;3.47;3.27;;;;;;;12.01;100.00;65434.28;5112868;28;20197;-71
2022/05/29 09:54:55;;;;;;;3.17;3.17;;;;;;;;;;5107660;28;20238;-72
2022/05/29 09:57:29;;;;;;;2.93;2.83;;;;;;;12.07;98.92;65437.78;5111123;28;20250;-73
2022/05/29 10:00:12;;;;;;;3.20;3.10;;;;;;;12.10;97.56;65430.72;5112556;28;20221;-72
2022/05/29 10:02:46;;;;;;;3.50;3.30;;;;;;;12.18;96.24;65446.84;5105972;28;20246;-70
2022/05/29 10:05:21;;;;;;;3.50;3.37;;;;;;;;;;5105168;28;20269;-72
2022/05/29 10:07:48;;;;;;;2.83;2.83;;;;;;;12.19;90.43;65450.53;5109046;28;20614;-71
2022/05/29 10:10:35;;;;;;;7.30;3.10;;;;;;;12.09;94.88;65442.59;5109437;28;20217;-71
2022/05/29 10:13:02;;;;;;;2.97;2.87;;;;;;;12.06;95.89;65434.63;5112042;28;20583;-71
2022/05/29 10:15:29;;;;;;;3.53;3.53;;;;;;;;;;5112628;28;20185;-71
2022/05/29 10:18:00;;;;;;;4.43;4.23;;;;;;;12.13;94.68;65454.84;5111679;28;20239;-71
2022/05/29 10:20:30;;;;;;;2.77;2.67;;;;;;;;;;5112980;28;20269;-72
2022/05/29 10:22:57;;;;;;;3.10;2.87;;;;;;;;;;5114114;28;20185;-71
2022/05/29 10:25:27;;;;;;;3.03;2.80;;;;;;;12.29;93.34;65462.22;5111975;28;20640;-71
2022/05/29 10:27:59;;;;;;;2.87;2.67;;;;;;;12.30;92.21;65463.31;5110025;28;20190;-70
2022/05/29 10:30:31;;;;;;;3.17;3.07;;;;;;;;;;5097447;28;20221;-71
2022/05/29 10:33:01;;;;;;;2.60;2.50;;;;;;;;;;5111530;28;20684;-72
2022/05/29 10:35:34;;;;;;;2.47;2.47;;;;;;;12.47;93.37;65481.63;5111365;28;20185;-72
2022/05/29 10:38:19;;;;;;;2.60;2.50;;;;;;;12.85;90.24;65527.91;5094006;28;20181;-72
2022/05/29 10:40:48;;;;;;;3.57;2.33;;;;;;;12.79;88.51;65519.22;5108255;28;20582;-71
2022/05/29 10:43:46;;;;;;;2.70;2.70;;;;;;;12.79;88.49;65448.91;5093121;28;20188;-71
2022/05/29 10:46:22;;;;;;;2.97;2.77;;;;;;;12.73;88.08;65512.56;5102506;28;20686;-72
2022/05/29 10:49:00;;;;;;;2.50;2.50;;;;;;;;;;5110350;28;20188;-72
2022/05/29 10:51:44;;;;;;;3.33;3.23;;;;;;;12.53;88.49;65485.69;5112938;28;20220;-72
2022/05/29 10:54:46;;;;;;;5.50;2.40;;;;;;;12.42;89.74;65478.13;5113307;28;20181;-71
2022/05/29 10:58:00;;;;;;;2.53;2.30;;;;;;;12.48;89.05;65482.19;5057794;28;20197;-72
2022/05/29 11:00:45;;;;;;;3.10;2.90;;;;;;;12.50;88.81;65481.78;5010967;28;20216;-72
2022/05/29 11:03:47;;;;;;;3.03;2.93;;;;;;;12.62;91.28;65498.28;5008504;28;20188;-72
2022/05/29 11:06:26;;;;;;;2.33;2.20;;;;;;;12.67;88.94;65501.22;5077927;28;20204;-72
2022/05/29 11:09:07;;;;;;;2.53;2.53;;;;;;;12.77;87.19;65513.81;5099586;28;20191;-73
2022/05/29 11:11:39;;;;;;;2.77;2.27;;;;;;;12.85;88.11;65520.66;5113478;28;20174;-73
2022/05/29 11:14:30;;;;;;;2.37;2.27;;;;;;;12.90;86.45;65528.81;5113166;28;20231;-72
2022/05/29 11:17:06;;;;;;;3.37;2.67;;;;;;;12.88;87.59;65524.00;5111685;28;20546;-73
2022/05/29 11:20:00;;;;;;;2.50;2.50;;;;;;;12.82;86.87;65519.94;5095114;28;20531;-73
2022/05/29 11:22:29;;;;;;;2.63;2.63;;;;;;;;;;5107119;28;20193;-72
2022/05/29 11:24:59;;;;;;;2.87;2.77;;;;;;;12.58;92.59;65490.69;5106377;28;20185;-72
2022/05/29 11:27:44;;;;;;;3.10;2.83;;;;;;;12.51;93.87;65482.91;5113312;28;20654;-71
2022/05/29 11:30:15;;;;;;;3.03;3.03;;;;;;;12.53;95.80;65487.72;5109297;28;20208;-72
2022/05/29 11:32:54;;;;;;;2.80;2.67;;;;;;;12.35;98.66;65468.28;5108101;28;20227;-72
2022/05/29 11:35:45;;;;;;;3.07;3.07;;;;;;;12.41;99.61;65467.16;5110563;28;20566;-73
2022/05/29 11:38:27;;;;;;;13.33;3.17;;;;;;;12.28;95.86;65458.47;5112176;28;20238;-72
2022/05/29 11:40:55;;;;;;;2.50;2.30;;;;;;;;;;5113903;28;20213;-72
2022/05/29 11:43:22;;;;;;;2.83;2.83;;;;;;;;;;5114235;28;20162;-72
2022/05/29 11:51:49;;;;;;;2.60;2.60;;;;;;;12.62;96.06;65497.72;5114772;28;20193;-73
2022/05/29 11:54:50;;;;;;;3.20;2.33;;;;;;;12.64;96.54;65499.94;5097432;28;20187;-72
2022/05/29 11:57:40;;;;;;;2.40;2.40;;;;;;;12.67;98.30;65503.28;5062755;28;20608;-72
2022/05/29 12:00:38;;;;;;;2.30;2.13;;;;;;;12.74;98.22;65503.25;5116340;28;20592;-73
2022/05/29 12:03:19;;;;;;;3.00;2.90;;;;;;;12.76;97.26;65510.66;5116817;28;20552;-73
2022/05/29 12:05:53;;;;;;;3.20;2.93;;;;;;;;;;5115730;28;20181;-72
2022/05/29 12:08:33;;;;;;;3.10;3.00;;;;;;;12.66;93.07;65513.13;5116182;28;20234;-73
2022/05/29 12:11:50;;;;;;;6.43;2.73;;;;;;;12.38;93.23;65472.19;5115613;28;20690;-73
2022/05/29 12:14:24;;;;;;;2.73;2.60;;;;;;;12.27;95.29;65457.38;5060250;28;20608;-73
2022/05/29 12:16:57;;;;;;;2.80;2.40;;;;;;;12.22;95.73;65459.63;5115410;28;20264;-72
2022/05/29 12:19:34;;;;;;;3.00;2.90;;;;;;;12.20;94.63;65449.59;5115827;28;20208;-72
2022/05/29 12:22:09;;;;;;;4.83;3.00;;;;;;;12.21;94.67;65453.31;5113711;28;20193;-72
2022/05/29 12:24:41;;;;;;;3.70;3.03;;;;;;;12.37;95.22;65471.09;5115770;28;20186;-71
2022/05/29 12:27:12;;;;;;;5.17;3.47;;;;;;;12.49;92.70;65483.28;5115403;28;20181;-73
2022/05/29 12:29:41;;;;;;;3.17;3.07;;;;;;;12.58;97.50;65486.03;5115677;28;20201;-72
2022/05/29 12:32:19;;;;;;;3.13;2.97;;;;;;;;;;5115981;28;20196;-72
2022/05/29 12:35:00;;;;;;;3.30;2.73;;;;;;;12.76;97.88;65513.28;5115564;28;20600;-72
2022/05/29 12:37:45;;;;;;;2.87;2.77;;;;;;;12.73;95.10;65514.59;5115572;28;20177;-72
2022/05/29 12:40:20;;;;;;;3.27;3.23;;;;;;;;;;5115093;28;20232;-72
2022/05/29 12:43:05;;;;;;;3.10;3.10;;;;;;;13.04;96.16;65551.63;5114997;28;20238;-72
2022/05/29 12:45:58;;;;;;;2.43;2.33;;;;;;;13.03;88.61;65542.16;5114915;28;20185;-73
2022/05/29 12:48:56;;;;;;;3.07;2.67;;;;;;;13.06;90.90;65542.88;5115374;28;20182;-73
2022/05/29 12:51:48;;;;;;;2.13;2.13;;;;;;;13.05;89.02;65541.75;5110507;28;20580;-71